Time;durP1;ratioP1;P1;durP2;ratioP2;P2;SDS_P1;SDS_P2;PMS_P1;PMS_P2;Temp;Humidity;BMP_temperature;BMP_pressure;BME280_temperature;BME280_humidity;BME280_pressure;Samples;Min_cycle;Max_cycle;Signal;HPM_P1;HPM_P2
2024/01/24 00:00:10;;;;;;;28.10;12.00;;;;;;;1.51;100.00;99816.95;109513;1251;61234;-76
2024/01/24 00:02:57;;;;;;;29.00;13.30;;;;;;;1.52;100.00;99805.39;109479;1252;65651;-74
2024/01/24 00:05:23;;;;;;;23.00;10.60;;;;;;;1.51;100.00;99800.17;109496;1255;59032;-76
2024/01/24 00:07:50;;;;;;;23.30;10.90;;;;;;;1.46;100.00;99800.58;109505;1251;58862;-75
2024/01/24 00:10:17;;;;;;;20.30;9.20;;;;;;;1.43;100.00;99799.08;109519;1251;66073;-77
2024/01/24 00:12:43;;;;;;;22.70;9.70;;;;;;;1.38;100.00;99797.92;109508;1251;61167;-76
2024/01/24 00:15:10;;;;;;;19.20;10.00;;;;;;;1.30;100.00;99792.96;109531;1251;63961;-75
2024/01/24 00:17:37;;;;;;;19.20;9.90;;;;;;;1.24;100.00;99791.16;109502;1251;58988;-76
2024/01/24 00:20:04;;;;;;;21.40;10.30;;;;;;;1.18;100.00;99785.48;109545;1251;59027;-75
2024/01/24 00:22:31;;;;;;;25.30;11.50;;;;;;;1.12;100.00;99784.17;109497;1251;67268;-75
2024/01/24 00:24:57;;;;;;;26.70;11.50;;;;;;;1.05;100.00;99786.02;109478;1251;61237;-76
2024/01/24 00:27:24;;;;;;;26.50;11.30;;;;;;;1.00;100.00;99782.09;109495;1251;65478;-77
2024/01/24 00:29:50;;;;;;;21.30;11.40;;;;;;;0.93;100.00;99794.26;109522;1251;59019;-78
2024/01/24 00:32:17;;;;;;;27.40;11.40;;;;;;;0.88;100.00;99789.98;109539;1252;59192;-77
2024/01/24 00:34:43;;;;;;;23.60;11.40;;;;;;;0.82;100.00;99776.06;109521;1251;65991;-77
2024/01/24 00:37:10;;;;;;;22.00;11.50;;;;;;;0.75;100.00;99766.19;109542;1252;61028;-74
2024/01/24 00:39:36;;;;;;;26.80;12.90;;;;;;;0.69;100.00;99759.80;109497;1251;65156;-76
2024/01/24 00:42:03;;;;;;;22.30;9.80;;;;;;;0.63;100.00;99753.42;109432;1253;58930;-75
2024/01/24 00:44:29;;;;;;;22.00;10.30;;;;;;;0.56;100.00;99737.77;109485;1251;59268;-77
2024/01/24 00:46:56;;;;;;;23.90;9.80;;;;;;;0.50;100.00;99735.08;109508;1252;66744;-76
2024/01/24 00:49:24;;;;;;;20.90;9.90;;;;;;;0.43;100.00;99736.22;109522;1251;61075;-76
2024/01/24 00:51:51;;;;;;;22.00;11.30;;;;;;;0.38;100.00;99731.74;109457;1251;65095;-74
2024/01/24 00:54:17;;;;;;;20.00;11.00;;;;;;;0.34;100.00;99730.58;109508;1251;59308;-76
2024/01/24 00:56:44;;;;;;;23.60;10.90;;;;;;;0.29;100.00;99732.23;109531;1251;58894;-76
2024/01/24 00:59:11;;;;;;;21.60;11.90;;;;;;;0.24;100.00;99720.77;109487;1251;66004;-76
2024/01/24 01:01:37;;;;;;;26.40;13.00;;;;;;;0.18;100.00;99712.61;109454;1251;60206;-78
2024/01/24 01:04:04;;;;;;;30.90;13.80;;;;;;;0.13;100.00;99711.10;109496;1251;65329;-76
2024/01/24 01:06:30;;;;;;;29.50;13.90;;;;;;;0.09;100.00;99703.82;109462;1251;59020;-76
2024/01/24 01:08:59;;;;;;;32.70;15.30;;;;;;;0.05;100.00;99703.35;109452;1252;59140;-76
2024/01/24 01:11:26;;;;;;;32.90;15.00;;;;;;;0.02;100.00;99712.30;109469;1251;67252;-76
2024/01/24 01:13:53;;;;;;;27.60;15.90;;;;;;;0.00;100.00;99722.63;109471;1251;61200;-76
2024/01/24 01:16:19;;;;;;;25.90;14.10;;;;;;;-0.02;100.00;99727.72;109498;1251;64102;-76
2024/01/24 01:18:46;;;;;;;23.70;13.90;;;;;;;-0.02;100.00;99725.11;109475;1252;59045;-75
2024/01/24 01:21:13;;;;;;;31.40;15.80;;;;;;;-0.02;100.00;99715.85;109513;1252;59123;-75
2024/01/24 01:23:39;;;;;;;25.70;13.60;;;;;;;-0.03;100.00;99708.87;109552;1252;67177;-77
2024/01/24 01:26:06;;;;;;;24.20;12.70;;;;;;;-0.03;100.00;99697.70;109484;1251;61292;-77
2024/01/24 01:28:33;;;;;;;32.60;14.20;;;;;;;-0.05;100.00;99687.93;109459;1251;64053;-77
2024/01/24 01:30:59;;;;;;;26.50;12.70;;;;;;;-0.07;100.00;99685.16;109441;1251;59053;-77
2024/01/24 01:33:26;;;;;;;26.40;13.40;;;;;;;-0.09;100.00;99686.24;108753;1251;1002799;-75
2024/01/24 01:35:53;;;;;;;28.10;13.80;;;;;;;-0.11;100.00;99679.79;109482;1251;67316;-75
2024/01/24 01:38:19;;;;;;;24.60;13.60;;;;;;;-0.11;100.00;99675.61;109498;1251;61605;-76
2024/01/24 01:40:46;;;;;;;26.00;12.70;;;;;;;-0.12;100.00;99672.48;109552;1251;65052;-75
2024/01/24 01:43:16;;;;;;;21.70;13.10;;;;;;;-0.12;100.00;99659.73;109468;1254;59111;-76
2024/01/24 01:45:43;;;;;;;22.70;11.90;;;;;;;-0.12;100.00;99644.19;109554;1251;59036;-74
2024/01/24 01:48:10;;;;;;;20.50;12.60;;;;;;;-0.13;100.00;99642.27;109523;1251;67002;-76
2024/01/24 01:50:38;;;;;;;19.60;12.00;;;;;;;-0.11;100.00;99637.36;109479;1251;61083;-76
2024/01/24 01:53:07;;;;;;;21.90;11.00;;;;;;;-0.10;100.00;99625.30;109489;1251;65237;-78
2024/01/24 01:55:35;;;;;;;21.00;11.10;;;;;;;-0.09;100.00;99619.17;109486;1251;58952;-76
2024/01/24 01:58:02;;;;;;;19.30;9.80;;;;;;;-0.08;100.00;99609.02;109499;1251;59166;-73
2024/01/24 02:00:29;;;;;;;22.00;9.90;;;;;;;-0.09;100.00;99594.02;109232;1251;67183;-75
2024/01/24 02:02:55;;;;;;;20.20;9.10;;;;;;;-0.09;100.00;99596.13;109451;1251;60142;-76
2024/01/24 02:05:22;;;;;;;17.60;9.30;;;;;;;-0.09;100.00;99589.30;109520;1251;64732;-76
2024/01/24 02:07:49;;;;;;;16.10;8.50;;;;;;;-0.09;100.00;99580.05;109502;1251;58953;-75
2024/01/24 02:10:16;;;;;;;15.30;6.70;;;;;;;-0.08;100.00;99574.11;109488;1251;59033;-75
2024/01/24 02:12:42;;;;;;;14.10;8.00;;;;;;;-0.07;100.00;99566.39;109462;1251;66071;-76
2024/01/24 02:15:09;;;;;;;18.00;9.00;;;;;;;-0.05;100.00;99563.23;109496;1251;61224;-76
2024/01/24 02:17:36;;;;;;;11.90;7.40;;;;;;;-0.03;100.00;99562.33;109483;1251;65073;-74
2024/01/24 02:20:07;;;;;;;14.20;7.80;;;;;;;0.01;100.00;99554.41;109239;1252;59167;-76
2024/01/24 02:22:34;;;;;;;11.40;7.10;;;;;;;0.05;100.00;99553.82;109493;1251;58999;-75
2024/01/24 02:25:00;;;;;;;14.50;7.40;;;;;;;0.09;100.00;99548.16;109440;1251;66698;-75
2024/01/24 02:27:27;;;;;;;14.20;7.40;;;;;;;0.14;100.00;99532.72;109347;1251;60282;-77
2024/01/24 02:29:57;;;;;;;13.70;6.30;;;;;;;0.19;100.00;99519.34;109486;1251;64250;-76
2024/01/24 02:32:24;;;;;;;13.60;6.00;;;;;;;0.25;100.00;99505.97;109435;1251;58955;-75
2024/01/24 02:34:51;;;;;;;15.70;5.10;;;;;;;0.34;100.00;99499.17;109535;1251;59047;-76
2024/01/24 02:37:19;;;;;;;9.90;4.70;;;;;;;0.46;100.00;99487.58;109472;1251;66011;-76
2024/01/24 02:39:47;;;;;;;11.20;5.30;;;;;;;0.63;100.00;99485.90;109467;1251;60111;-77
2024/01/24 02:42:13;;;;;;;9.60;3.80;;;;;;;0.82;100.00;99483.79;109524;1251;65058;-76
2024/01/24 02:44:40;;;;;;;9.60;3.50;;;;;;;0.97;100.00;99477.17;109488;1251;58992;-75
2024/01/24 02:47:06;;;;;;;7.20;3.40;;;;;;;1.09;100.00;99469.08;109500;1251;59933;-76
2024/01/24 02:49:33;;;;;;;9.30;3.20;;;;;;;1.20;100.00;99462.19;109429;1253;65996;-75
2024/01/24 02:52:02;;;;;;;7.30;3.20;;;;;;;1.29;100.00;99453.05;109476;1251;69373;-75
2024/01/24 02:54:28;;;;;;;7.70;3.30;;;;;;;1.39;100.00;99448.27;109473;1251;65393;-75
2024/01/24 02:56:55;;;;;;;8.50;3.30;;;;;;;1.49;100.00;99428.79;109450;1251;59021;-75
2024/01/24 02:59:21;;;;;;;10.50;3.40;;;;;;;1.59;100.00;99418.94;109465;1251;59423;-76
2024/01/24 03:01:48;;;;;;;10.40;3.70;;;;;;;1.65;100.00;99412.66;109484;1251;66976;-76
2024/01/24 03:04:14;;;;;;;8.40;3.10;;;;;;;1.72;100.00;99398.83;109489;1251;59005;-76
2024/01/24 03:06:41;;;;;;;8.50;3.70;;;;;;;1.80;100.00;99388.30;109276;1253;64036;-76
2024/01/24 03:09:08;;;;;;;7.70;3.00;;;;;;;1.88;100.00;99386.00;109405;1251;59184;-74
2024/01/24 03:11:34;;;;;;;8.10;3.40;;;;;;;1.96;100.00;99382.99;109484;1254;59370;-76
2024/01/24 03:14:01;;;;;;;6.30;2.70;;;;;;;2.02;100.00;99379.52;109496;1251;66065;-75
2024/01/24 03:16:27;;;;;;;5.60;2.80;;;;;;;2.07;100.00;99378.48;109540;1251;61273;-76
2024/01/24 03:18:54;;;;;;;9.60;3.60;;;;;;;2.14;100.00;99375.00;109302;1251;64103;-76
2024/01/24 03:21:21;;;;;;;7.60;3.60;;;;;;;2.20;100.00;99365.89;109254;1251;59215;-76
2024/01/24 03:23:47;;;;;;;8.30;4.10;;;;;;;2.24;100.00;99357.36;109505;1251;58951;-77
2024/01/24 03:26:15;;;;;;;11.40;3.80;;;;;;;2.29;100.00;99359.52;109471;1251;64465;-77
2024/01/24 03:28:42;;;;;;;9.50;3.70;;;;;;;2.32;100.00;99360.30;109443;1251;60131;-77
2024/01/24 03:31:09;;;;;;;13.00;4.10;;;;;;;2.36;100.00;99365.43;109493;1251;65078;-75
2024/01/24 03:33:36;;;;;;;10.10;3.10;;;;;;;2.39;100.00;99372.18;109461;1251;59224;-76
2024/01/24 03:36:03;;;;;;;7.80;3.70;;;;;;;2.43;100.00;99367.36;109465;1251;59097;-77
2024/01/24 03:38:30;;;;;;;7.70;3.30;;;;;;;2.47;100.00;99362.70;109453;1251;65997;-75
2024/01/24 03:40:56;;;;;;;10.90;3.80;;;;;;;2.50;100.00;99358.73;109460;1251;60074;-76
2024/01/24 03:43:23;;;;;;;11.00;4.70;;;;;;;2.54;100.00;99355.63;109453;1251;63851;-76
2024/01/24 03:45:50;;;;;;;10.30;4.70;;;;;;;2.59;100.00;99350.77;109437;1251;58978;-76
2024/01/24 03:48:17;;;;;;;12.00;4.00;;;;;;;2.64;100.00;99340.98;109474;1251;59097;-77
2024/01/24 03:50:43;;;;;;;11.20;3.50;;;;;;;2.68;100.00;99320.67;109507;1255;65943;-76
2024/01/24 03:53:10;;;;;;;9.20;3.40;;;;;;;2.73;100.00;99306.14;109485;1251;60167;-76
2024/01/24 03:55:36;;;;;;;8.50;3.20;;;;;;;2.79;100.00;99282.63;109432;1251;65061;-76
2024/01/24 03:58:03;;;;;;;9.40;3.80;;;;;;;2.85;100.00;99268.92;109387;1251;59066;-75
2024/01/24 04:00:29;;;;;;;9.60;4.00;;;;;;;2.88;100.00;99263.74;109181;1251;59030;-77
2024/01/24 04:02:56;;;;;;;10.40;3.60;;;;;;;2.90;100.00;99262.30;109429;1253;66972;-76
2024/01/24 04:05:23;;;;;;;12.00;3.80;;;;;;;2.91;100.00;99259.30;109520;1251;61039;-76
2024/01/24 04:07:49;;;;;;;7.90;3.10;;;;;;;2.92;100.00;99257.33;109458;1251;65252;-76
2024/01/24 04:10:16;;;;;;;11.40;3.20;;;;;;;2.92;100.00;99262.21;109456;1251;59524;-76
2024/01/24 04:12:43;;;;;;;10.00;3.60;;;;;;;2.96;100.00;99253.33;109284;1251;59106;-76
2024/01/24 04:15:10;;;;;;;8.40;3.30;;;;;;;3.03;100.00;99235.19;109426;1251;66897;-76
2024/01/24 04:17:36;;;;;;;9.10;3.70;;;;;;;3.09;100.00;99230.80;109472;1255;60304;-76
2024/01/24 04:20:03;;;;;;;9.10;3.50;;;;;;;3.13;100.00;99222.05;109489;1251;64862;-76
2024/01/24 04:22:30;;;;;;;5.70;3.40;;;;;;;3.18;100.00;99218.39;109266;1251;59020;-76
2024/01/24 04:24:57;;;;;;;9.40;3.80;;;;;;;3.19;100.00;99227.66;109495;1251;59132;-76
2024/01/24 04:27:23;;;;;;;10.70;3.40;;;;;;;3.18;100.00;99231.71;109448;1251;67004;-76
2024/01/24 04:29:50;;;;;;;11.40;4.10;;;;;;;3.18;100.00;99224.18;109517;1251;61508;-76
2024/01/24 04:32:16;;;;;;;8.90;4.10;;;;;;;3.18;100.00;99212.58;109515;1251;65090;-76
2024/01/24 04:34:44;;;;;;;5.00;2.80;;;;;;;3.18;100.00;99205.73;109436;1251;58947;-75
2024/01/24 04:37:11;;;;;;;8.40;4.20;;;;;;;3.21;100.00;99198.10;109472;1251;59008;-76
2024/01/24 04:39:37;;;;;;;8.90;3.50;;;;;;;3.23;100.00;99188.71;109489;1251;66110;-75
2024/01/24 04:42:04;;;;;;;8.00;3.70;;;;;;;3.25;100.00;99199.36;109501;1251;61169;-75
2024/01/24 04:44:30;;;;;;;11.30;3.60;;;;;;;3.31;100.00;99205.65;109442;1251;64161;-75
2024/01/24 04:46:57;;;;;;;10.70;3.70;;;;;;;3.38;100.00;99206.98;109437;1251;58938;-76
2024/01/24 04:49:24;;;;;;;8.60;3.00;;;;;;;3.48;100.00;99204.20;109473;1251;58935;-76
2024/01/24 04:51:50;;;;;;;8.70;3.20;;;;;;;3.57;100.00;99194.55;109496;1251;67012;-76
2024/01/24 04:54:17;;;;;;;9.40;3.00;;;;;;;3.65;100.00;99184.79;109383;1251;61045;-75
2024/01/24 04:56:46;;;;;;;10.40;3.10;;;;;;;3.71;100.00;99187.92;109447;1255;64136;-76
2024/01/24 04:59:13;;;;;;;8.30;2.80;;;;;;;3.78;100.00;99184.69;109467;1251;58941;-77
2024/01/24 05:01:40;;;;;;;9.00;3.00;;;;;;;3.84;100.00;99180.58;107195;1251;1003057;-76
2024/01/24 05:04:06;;;;;;;8.40;3.30;;;;;;;3.88;100.00;99175.70;109412;1253;66005;-75
2024/01/24 05:06:33;;;;;;;9.20;3.60;;;;;;;3.92;100.00;99180.66;109510;1251;61208;-74
2024/01/24 05:09:00;;;;;;;7.80;3.60;;;;;;;3.95;100.00;99185.30;109492;1251;64105;-76
2024/01/24 05:11:26;;;;;;;9.80;3.30;;;;;;;4.00;100.00;99189.16;109472;1251;59275;-77
2024/01/24 05:13:55;;;;;;;11.20;3.40;;;;;;;4.05;100.00;99183.00;109496;1251;58862;-75
2024/01/24 05:16:21;;;;;;;5.80;2.50;;;;;;;4.08;100.00;99178.66;109482;1251;67169;-76
2024/01/24 05:18:48;;;;;;;5.60;2.90;;;;;;;4.11;100.00;99171.87;109476;1251;60172;-74
2024/01/24 05:21:14;;;;;;;7.60;2.80;;;;;;;4.15;100.00;99172.39;109452;1251;65261;-76
2024/01/24 05:23:42;;;;;;;9.20;3.60;;;;;;;4.19;100.00;99167.51;109500;1251;58979;-76
2024/01/24 05:26:09;;;;;;;8.30;3.10;;;;;;;4.20;100.00;99167.67;109463;1251;59363;-75
2024/01/24 05:28:35;;;;;;;5.80;3.00;;;;;;;4.19;100.00;99165.93;109494;1251;66559;-77
2024/01/24 05:31:02;;;;;;;10.20;4.20;;;;;;;4.21;100.00;99163.04;109439;1251;60990;-76
2024/01/24 05:33:29;;;;;;;9.80;3.60;;;;;;;4.23;100.00;99159.83;109458;1251;64982;-75
2024/01/24 05:35:55;;;;;;;10.70;4.50;;;;;;;4.23;100.00;99153.81;109281;1254;59072;-77
2024/01/24 05:38:22;;;;;;;9.90;4.10;;;;;;;4.24;100.00;99144.30;109451;1251;59046;-75
2024/01/24 05:40:49;;;;;;;9.70;4.40;;;;;;;4.23;100.00;99141.70;109526;1251;65910;-76
2024/01/24 05:43:15;;;;;;;11.90;4.00;;;;;;;4.21;100.00;99129.63;109444;1251;61045;-76
2024/01/24 05:45:42;;;;;;;9.30;4.60;;;;;;;4.19;100.00;99121.09;109463;1251;63802;-75
2024/01/24 05:48:09;;;;;;;7.30;3.50;;;;;;;4.17;100.00;99118.88;109458;1251;59031;-76
2024/01/24 05:50:35;;;;;;;9.80;4.10;;;;;;;4.17;100.00;99115.38;109477;1251;59409;-76
2024/01/24 05:53:02;;;;;;;7.40;3.40;;;;;;;4.17;100.00;99116.59;109325;1251;67362;-75
2024/01/24 05:55:29;;;;;;;9.10;3.80;;;;;;;4.17;100.00;99105.86;109458;1251;61012;-76
2024/01/24 05:57:56;;;;;;;7.20;3.40;;;;;;;4.15;100.00;99098.20;109130;1251;64553;-76
2024/01/24 06:00:22;;;;;;;10.10;3.80;;;;;;;4.13;100.00;99091.27;109482;1251;58960;-76
2024/01/24 06:02:50;;;;;;;9.10;3.80;;;;;;;4.11;100.00;99078.83;109439;1251;59030;-76
2024/01/24 06:05:18;;;;;;;8.00;3.80;;;;;;;4.09;100.00;99068.88;109471;1251;65646;-75
2024/01/24 06:07:48;;;;;;;10.10;4.30;;;;;;;4.07;100.00;99060.38;109304;1251;60070;-76
2024/01/24 06:10:15;;;;;;;7.60;3.90;;;;;;;4.05;100.00;99055.01;109431;1251;64819;-77
2024/01/24 06:12:42;;;;;;;6.50;4.00;;;;;;;4.03;100.00;99046.64;109403;1251;59025;-76
2024/01/24 06:15:09;;;;;;;7.70;4.00;;;;;;;4.01;100.00;99029.16;109466;1251;59114;-77
2024/01/24 06:17:35;;;;;;;10.30;4.10;;;;;;;3.97;100.00;99018.41;109129;1256;66904;-76
2024/01/24 06:20:02;;;;;;;10.70;4.60;;;;;;;3.94;100.00;99018.35;109478;1251;60954;-76
2024/01/24 06:22:29;;;;;;;8.90;4.50;;;;;;;3.90;100.00;99022.18;109366;1251;64729;-73
2024/01/24 06:24:57;;;;;;;9.70;4.60;;;;;;;3.86;100.00;99005.63;109469;1251;59131;-77
2024/01/24 06:27:24;;;;;;;11.70;6.00;;;;;;;3.84;100.00;98985.52;109500;1251;58935;-76
2024/01/24 06:29:51;;;;;;;7.20;4.80;;;;;;;3.82;100.00;98981.73;109467;1251;67213;-76
2024/01/24 06:32:17;;;;;;;10.70;5.10;;;;;;;3.81;100.00;98979.65;109429;1251;61582;-76
2024/01/24 06:34:44;;;;;;;11.90;6.00;;;;;;;3.81;100.00;98979.50;109360;1251;64030;-76
2024/01/24 06:37:10;;;;;;;12.90;5.80;;;;;;;3.81;100.00;98983.73;109447;1251;59033;-74
2024/01/24 06:39:37;;;;;;;8.40;4.90;;;;;;;3.80;100.00;98990.27;109473;1251;59015;-75
2024/01/24 06:42:04;;;;;;;7.50;4.80;;;;;;;3.80;100.00;98999.56;109442;1251;66020;-76
2024/01/24 06:44:30;;;;;;;6.00;3.90;;;;;;;3.81;100.00;98996.34;109448;1251;60044;-76
2024/01/24 06:46:57;;;;;;;6.80;3.80;;;;;;;3.84;100.00;98992.35;109450;1251;65028;-76
2024/01/24 06:49:24;;;;;;;9.20;4.50;;;;;;;3.88;100.00;98981.84;109468;1251;59221;-75
2024/01/24 06:51:50;;;;;;;6.50;4.20;;;;;;;3.91;100.00;98974.35;109463;1251;59020;-75
2024/01/24 06:54:17;;;;;;;6.30;4.20;;;;;;;3.95;100.00;98968.04;109456;1251;74943;-75
2024/01/24 06:56:44;;;;;;;7.00;4.40;;;;;;;3.99;100.00;98962.59;109442;1251;61061;-75
2024/01/24 06:59:11;;;;;;;6.00;4.50;;;;;;;4.04;100.00;98957.30;109428;1251;64726;-74
2024/01/24 07:01:38;;;;;;;5.70;4.00;;;;;;;4.07;100.00;98958.23;109484;1251;58972;-74
2024/01/24 07:04:04;;;;;;;6.50;4.50;;;;;;;4.10;100.00;98950.35;109475;1251;59092;-75
2024/01/24 07:06:31;;;;;;;6.70;4.60;;;;;;;4.14;100.00;98948.44;109431;1251;66004;-75
2024/01/24 07:08:57;;;;;;;6.50;5.20;;;;;;;4.18;100.00;98952.14;109461;1251;61089;-75
2024/01/24 07:11:24;;;;;;;7.30;4.70;;;;;;;4.21;100.00;98943.40;109301;1251;65582;-74
2024/01/24 07:13:50;;;;;;;7.60;5.40;;;;;;;4.25;100.00;98930.74;109414;1251;59303;-74
2024/01/24 07:16:17;;;;;;;7.10;4.70;;;;;;;4.30;100.00;98918.41;109440;1251;58877;-75
2024/01/24 07:18:43;;;;;;;6.90;4.60;;;;;;;4.33;100.00;98908.92;109518;1251;65945;-76
2024/01/24 07:21:10;;;;;;;10.60;5.80;;;;;;;4.37;100.00;98899.44;109457;1251;61099;-75
2024/01/24 07:23:36;;;;;;;4.90;4.00;;;;;;;4.41;100.00;98889.42;109415;1251;63996;-75
2024/01/24 07:26:03;;;;;;;7.50;4.10;;;;;;;4.45;100.00;98889.46;109424;1251;58977;-75
2024/01/24 07:28:30;;;;;;;6.30;3.80;;;;;;;4.49;100.00;98898.23;109440;1251;58897;-74
2024/01/24 07:30:57;;;;;;;9.50;4.80;;;;;;;4.53;100.00;98894.20;109458;1251;67020;-75
2024/01/24 07:33:23;;;;;;;8.30;4.90;;;;;;;4.55;100.00;98892.67;109522;1251;60051;-75
2024/01/24 07:35:50;;;;;;;7.40;4.10;;;;;;;4.59;100.00;98877.20;109470;1251;63794;-75
2024/01/24 07:38:18;;;;;;;8.00;4.30;;;;;;;4.65;100.00;98869.56;109449;1251;58954;-77
2024/01/24 07:40:45;;;;;;;5.40;2.90;;;;;;;4.72;100.00;98863.09;109315;1251;59113;-76
2024/01/24 07:43:11;;;;;;;6.90;3.10;;;;;;;4.79;100.00;98863.64;109501;1251;66010;-75
2024/01/24 07:45:38;;;;;;;5.80;3.50;;;;;;;4.82;100.00;98864.02;109394;1251;61407;-76
2024/01/24 07:48:05;;;;;;;4.10;2.90;;;;;;;4.83;100.00;98857.84;109518;1251;65033;-77
2024/01/24 07:50:32;;;;;;;2.70;2.40;;;;;;;4.83;100.00;98867.52;109442;1251;59357;-77
2024/01/24 07:52:59;;;;;;;4.80;3.00;;;;;;;4.81;100.00;98857.20;109445;1251;58997;-78
2024/01/24 07:55:25;;;;;;;4.10;2.70;;;;;;;4.78;100.00;98858.40;109492;1251;65998;-77
2024/01/24 07:57:52;;;;;;;3.20;2.30;;;;;;;4.74;100.00;98844.83;109467;1251;61039;-76
2024/01/24 08:00:19;;;;;;;3.50;2.70;;;;;;;4.72;100.00;98843.17;109462;1251;64037;-77
2024/01/24 08:02:46;;;;;;;5.00;3.10;;;;;;;4.70;100.00;98848.02;109432;1251;59015;-76
2024/01/24 08:05:12;;;;;;;5.10;2.90;;;;;;;4.68;100.00;98833.70;109461;1251;59073;-76
2024/01/24 08:07:40;;;;;;;5.20;3.80;;;;;;;4.66;100.00;98824.84;109271;1251;66846;-76
2024/01/24 08:10:10;;;;;;;8.30;4.80;;;;;;;4.64;100.00;98815.77;109477;1251;60175;-76
2024/01/24 08:12:40;;;;;;;;;;;;;;;4.62;100.00;98808.45;109481;1251;65349;-76
2024/01/24 08:15:07;;;;;;;4.40;3.00;;;;;;;4.61;100.00;98799.18;109473;1251;58970;-75
2024/01/24 08:17:34;;;;;;;5.40;3.90;;;;;;;4.60;100.00;98799.89;109487;1251;59065;-75
2024/01/24 08:20:03;;;;;;;4.20;2.80;;;;;;;4.61;100.00;98805.84;109149;1251;66064;-75
2024/01/24 08:22:30;;;;;;;5.10;3.60;;;;;;;4.60;100.00;98804.99;109485;1251;59682;-75
2024/01/24 08:24:57;;;;;;;4.70;3.60;;;;;;;4.60;100.00;98805.72;109427;1251;65262;-75
2024/01/24 08:27:23;;;;;;;5.80;4.00;;;;;;;4.60;100.00;98796.37;109468;1251;58983;-75
2024/01/24 08:29:50;;;;;;;5.30;3.50;;;;;;;4.61;100.00;98787.39;109490;1251;58891;-76
2024/01/24 08:32:17;;;;;;;4.80;3.70;;;;;;;4.62;100.00;98790.66;109467;1251;66060;-76
2024/01/24 08:34:43;;;;;;;7.30;4.90;;;;;;;4.64;100.00;98797.11;109455;1251;61048;-76
2024/01/24 08:37:10;;;;;;;6.00;5.00;;;;;;;4.66;100.00;98795.45;109480;1251;64224;-76
2024/01/24 08:39:38;;;;;;;6.00;4.20;;;;;;;4.68;100.00;98789.01;109278;1251;59033;-77
2024/01/24 08:42:05;;;;;;;4.00;3.30;;;;;;;4.71;100.00;98782.69;109458;1251;58916;-76
2024/01/24 08:44:31;;;;;;;4.90;3.40;;;;;;;4.76;100.00;98771.21;109516;1251;67156;-76
2024/01/24 08:46:58;;;;;;;4.80;3.30;;;;;;;4.83;100.00;98765.61;109513;1251;61054;-77
2024/01/24 08:49:25;;;;;;;4.20;3.20;;;;;;;4.90;100.00;98761.73;109492;1251;64069;-75
2024/01/24 08:51:52;;;;;;;4.10;2.90;;;;;;;4.95;100.00;98756.20;109441;1251;58993;-76
2024/01/24 08:54:19;;;;;;;3.40;2.90;;;;;;;5.01;100.00;98758.03;109465;1251;59210;-76
2024/01/24 08:56:46;;;;;;;3.80;2.80;;;;;;;5.09;100.00;98758.55;109452;1251;66986;-76
2024/01/24 08:59:12;;;;;;;5.60;3.20;;;;;;;5.21;100.00;98768.36;109486;1251;61115;-76
2024/01/24 09:01:39;;;;;;;4.00;3.10;;;;;;;5.30;100.00;98764.23;109455;1251;65254;-76
2024/01/24 09:04:06;;;;;;;4.70;3.60;;;;;;;5.37;100.00;98746.96;109459;1251;59023;-75
2024/01/24 09:06:32;;;;;;;5.50;3.00;;;;;;;5.44;100.00;98741.31;109296;1251;59172;-77
2024/01/24 09:08:59;;;;;;;4.80;3.40;;;;;;;5.53;100.00;98735.42;109468;1251;66280;-76
2024/01/24 09:11:26;;;;;;;5.20;3.30;;;;;;;5.61;100.00;98736.44;109502;1251;60147;-75
2024/01/24 09:13:52;;;;;;;7.90;4.30;;;;;;;5.64;100.00;98725.33;109474;1251;65067;-76
2024/01/24 09:16:19;;;;;;;6.90;3.90;;;;;;;5.66;100.00;98722.23;109454;1251;58956;-77
2024/01/24 09:18:46;;;;;;;7.50;3.90;;;;;;;5.68;100.00;98713.67;109482;1251;58866;-76
2024/01/24 09:21:12;;;;;;;6.70;3.70;;;;;;;5.69;100.00;98713.44;109496;1251;66075;-76
2024/01/24 09:23:39;;;;;;;6.90;3.60;;;;;;;5.69;100.00;98715.75;109456;1251;60099;-77
2024/01/24 09:26:05;;;;;;;5.50;3.40;;;;;;;5.65;100.00;98717.67;109473;1251;65614;-75
2024/01/24 09:28:32;;;;;;;5.80;3.60;;;;;;;5.62;100.00;98719.64;109461;1251;58979;-75
2024/01/24 09:30:59;;;;;;;4.80;3.40;;;;;;;5.57;100.00;98716.69;109481;1251;58847;-76
2024/01/24 09:33:26;;;;;;;8.70;6.00;;;;;;;5.54;100.00;98706.28;109518;1251;66048;-75
2024/01/24 09:35:52;;;;;;;6.10;5.10;;;;;;;5.52;100.00;98691.43;109493;1251;60824;-75
2024/01/24 09:38:19;;;;;;;4.70;3.10;;;;;;;5.50;100.00;98680.58;109276;1251;65169;-75
2024/01/24 09:40:45;;;;;;;5.80;3.60;;;;;;;5.50;100.00;98674.23;109479;1251;59037;-75
2024/01/24 09:43:13;;;;;;;4.40;2.90;;;;;;;5.54;100.00;98669.66;109451;1251;58925;-75
2024/01/24 09:45:42;;;;;;;4.10;3.10;;;;;;;5.60;100.00;98668.95;109375;1251;67077;-75
2024/01/24 09:48:10;;;;;;;4.40;3.10;;;;;;;5.69;100.00;98666.03;109427;1252;62982;-74
2024/01/24 09:50:38;;;;;;;4.20;2.90;;;;;;;5.77;100.00;98664.36;109398;1252;65213;-76
2024/01/24 09:53:09;;;;;;;4.70;3.40;;;;;;;5.82;100.00;98670.27;109431;1252;58952;-77
2024/01/24 09:55:36;;;;;;;7.50;3.90;;;;;;;5.85;100.00;98674.34;109438;1252;58984;-76
2024/01/24 09:58:03;;;;;;;5.80;4.70;;;;;;;5.89;100.00;98666.91;109416;1251;67284;-76
2024/01/24 10:00:31;;;;;;;8.20;5.80;;;;;;;5.93;100.00;98657.91;109216;1252;108286;-76
2024/01/24 10:02:58;;;;;;;6.10;4.30;;;;;;;5.96;100.00;98657.59;109425;1252;63989;-75
2024/01/24 10:05:25;;;;;;;6.10;4.30;;;;;;;6.00;100.00;98656.66;109497;1251;59013;-76
2024/01/24 10:07:53;;;;;;;6.00;4.10;;;;;;;6.03;100.00;98643.45;109544;1251;59011;-76
2024/01/24 10:10:20;;;;;;;7.30;4.10;;;;;;;6.04;100.00;98639.16;109569;1251;66986;-76
2024/01/24 10:12:47;;;;;;;6.10;3.60;;;;;;;6.05;100.00;98631.55;109535;1251;60786;-77
2024/01/24 10:15:13;;;;;;;6.70;4.40;;;;;;;6.04;100.00;98621.89;109338;1251;64210;-76
2024/01/24 10:17:42;;;;;;;6.00;4.50;;;;;;;6.05;100.00;98616.01;109392;1251;59021;-75
2024/01/24 10:20:11;;;;;;;5.20;4.00;;;;;;;6.08;100.00;98613.58;109568;1254;58964;-75
2024/01/24 10:22:39;;;;;;;7.70;5.30;;;;;;;6.11;100.00;98625.23;109566;1251;67142;-75
2024/01/24 10:25:06;;;;;;;4.60;3.20;;;;;;;6.14;100.00;98625.23;109393;1251;61508;-76
2024/01/24 10:27:34;;;;;;;3.60;2.90;;;;;;;6.17;100.00;98623.64;109520;1252;64296;-76
2024/01/24 10:30:01;;;;;;;9.30;4.40;;;;;;;6.20;100.00;98636.52;109465;1252;59217;-77
2024/01/24 10:32:28;;;;;;;6.20;3.50;;;;;;;6.21;100.00;98632.95;109434;1252;59052;-75
2024/01/24 10:34:54;;;;;;;6.00;3.80;;;;;;;6.21;100.00;98627.83;109510;1252;67076;-77
2024/01/24 10:37:21;;;;;;;7.70;3.70;;;;;;;6.23;100.00;98615.92;109458;1252;60809;-75
2024/01/24 10:39:51;;;;;;;7.40;3.00;;;;;;;6.25;100.00;98611.40;109406;1252;65084;-75
2024/01/24 10:42:18;;;;;;;5.50;3.90;;;;;;;6.31;100.00;98599.08;109412;1252;58954;-75
2024/01/24 10:44:49;;;;;;;4.80;3.20;;;;;;;6.41;100.00;98587.54;109443;1252;58899;-75
2024/01/24 10:47:17;;;;;;;9.40;4.50;;;;;;;6.56;100.00;98591.45;109450;1252;67083;-76
2024/01/24 10:49:44;;;;;;;7.60;4.50;;;;;;;6.72;100.00;98577.46;109516;1251;61087;-76
2024/01/24 10:52:12;;;;;;;5.00;2.80;;;;;;;6.86;100.00;98582.30;109498;1251;64014;-77
2024/01/24 10:54:40;;;;;;;6.00;3.20;;;;;;;6.95;100.00;98571.18;109308;1251;59156;-78
2024/01/24 10:57:07;;;;;;;6.00;3.60;;;;;;;7.03;100.00;98559.96;109526;1251;59215;-77
2024/01/24 10:59:38;;;;;;;7.30;4.30;;;;;;;7.14;100.00;98560.54;109482;1251;67377;-77
2024/01/24 11:02:08;;;;;;;4.60;3.10;;;;;;;7.21;100.00;98550.23;109456;1251;69092;-78
2024/01/24 11:04:37;;;;;;;3.50;2.50;;;;;;;7.25;100.00;98547.69;109503;1251;65155;-77
2024/01/24 11:07:12;;;;;;;5.40;3.10;;;;;;;7.28;100.00;98549.42;109519;1251;58886;-77
2024/01/24 11:09:54;;;;;;;6.30;2.80;;;;;;;7.32;100.00;98544.62;109524;1251;58962;-76
2024/01/24 11:12:21;;;;;;;7.40;4.40;;;;;;;7.36;100.00;98548.09;109559;1251;66132;-76
2024/01/24 11:14:48;;;;;;;7.80;4.10;;;;;;;7.39;100.00;98534.14;109425;1251;60110;-79
2024/01/24 11:17:15;;;;;;;6.10;3.10;;;;;;;7.44;100.00;98520.17;109463;1251;65051;-78